Time;durP1;ratioP1;P1;durP2;ratioP2;P2;SDS_P1;SDS_P2;PMS_P1;PMS_P2;Temp;Humidity;BMP_temperature;BMP_pressure;BME280_temperature;BME280_humidity;BME280_pressure;Samples;Min_cycle;Max_cycle;Signal;HPM_P1;HPM_P2
2023/06/24 00:01:17;;;;;;;1.67;1.40;;;22.20;61.00;;;;;;6264635;28;20028;-74
2023/06/24 00:04:19;;;;;;;1.45;1.30;;;22.20;61.00;;;;;;6269201;28;20021;-73
2023/06/24 00:07:22;;;;;;;1.48;1.33;;;22.20;61.00;;;;;;6269260;28;20162;-73
2023/06/24 00:10:22;;;;;;;1.67;1.40;;;22.20;61.10;;;;;;6269085;28;20055;-73
2023/06/24 00:13:23;;;;;;;1.70;1.50;;;22.20;61.10;;;;;;6269061;28;20076;-73
2023/06/24 00:16:27;;;;;;;1.77;1.48;;;22.10;61.00;;;;;;6268962;28;20036;-73
2023/06/24 00:19:27;;;;;;;1.50;1.35;;;22.20;61.00;;;;;;6269177;28;20060;-73
2023/06/24 00:22:28;;;;;;;1.63;1.30;;;22.20;61.00;;;;;;6274014;28;20089;-73
2023/06/24 00:25:29;;;;;;;1.25;1.15;;;22.20;61.00;;;;;;6273844;28;20029;-73
2023/06/24 00:28:30;;;;;;;1.20;1.10;;;22.20;61.00;;;;;;6273915;28;20033;-73
2023/06/24 00:31:30;;;;;;;1.67;1.38;;;22.20;61.00;;;;;;6273377;28;20602;-73
2023/06/24 00:34:31;;;;;;;1.55;1.45;;;22.10;61.00;;;;;;6273728;28;20025;-73
2023/06/24 00:37:32;;;;;;;1.88;1.60;;;22.20;61.00;;;;;;6270402;28;20108;-73
2023/06/24 00:40:33;;;;;;;2.03;1.40;;;22.20;61.10;;;;;;6273472;28;20029;-73
2023/06/24 00:43:34;;;;;;;1.80;1.30;;;22.10;61.00;;;;;;6267530;28;20025;-73
2023/06/24 00:46:35;;;;;;;1.95;1.40;;;22.20;61.00;;;;;;6273282;28;20097;-73
2023/06/24 00:49:36;;;;;;;1.30;1.13;;;22.10;60.90;;;;;;6272091;28;20529;-73
2023/06/24 00:52:38;;;;;;;1.50;1.20;;;22.20;61.10;;;;;;6195014;28;20069;-73
2023/06/24 00:55:39;;;;;;;1.85;1.40;;;22.10;61.10;;;;;;6193982;28;20046;-73
2023/06/24 00:58:41;;;;;;;1.40;1.30;;;22.10;61.00;;;;;;6194644;28;20399;-73
2023/06/24 01:01:42;;;;;;;1.60;1.40;;;22.20;61.20;;;;;;6194044;28;20037;-73
2023/06/24 01:04:43;;;;;;;1.42;1.20;;;22.20;61.10;;;;;;6194659;28;20030;-73
2023/06/24 01:07:44;;;;;;;1.60;1.48;;;22.20;61.00;;;;;;6194231;28;20090;-73
2023/06/24 01:10:44;;;;;;;1.40;1.30;;;22.20;61.10;;;;;;6194564;28;20030;-73
2023/06/24 01:13:45;;;;;;;1.48;1.30;;;22.20;61.00;;;;;;6177862;28;20050;-73
2023/06/24 01:17:01;;;;;;;1.23;1.13;;;22.10;61.00;;;;;;6193974;28;20026;-73
2023/06/24 01:20:11;;;;;;;1.48;1.38;;;22.10;61.00;;;;;;6177759;28;20134;-73
2023/06/24 01:23:39;;;;;;;1.30;1.20;;;22.20;61.00;;;;;;6228355;28;20119;-73
2023/06/24 01:27:11;;;;;;;1.45;1.35;;;22.10;61.00;;;;;;6270471;28;20025;-73
2023/06/24 01:30:56;;;;;;;1.60;1.50;;;22.20;61.10;;;;;;6270860;28;20049;-73
2023/06/24 01:34:08;;;;;;;1.13;1.00;;;22.10;61.00;;;;;;6252411;28;20041;-72
2023/06/24 01:37:35;;;;;;;1.50;1.20;;;22.20;61.00;;;;;;6270822;28;20021;-73
2023/06/24 01:40:42;;;;;;;1.33;1.23;;;22.10;61.00;;;;;;6270559;28;20032;-75
2023/06/24 01:43:44;;;;;;;1.40;1.20;;;22.10;61.00;;;;;;6270322;28;20108;-73
2023/06/24 01:46:48;;;;;;;1.40;1.30;;;22.10;61.00;;;;;;6270470;28;20053;-75
2023/06/24 01:49:53;;;;;;;1.40;1.20;;;22.10;61.00;;;;;;6270383;28;20080;-73
2023/06/24 01:52:55;;;;;;;1.85;1.48;;;22.10;61.10;;;;;;6270123;28;20506;-73
2023/06/24 01:56:00;;;;;;;1.83;1.27;;;22.20;61.30;;;;;;6270046;28;20056;-73
2023/06/24 01:59:03;;;;;;;1.52;1.25;;;22.10;60.90;;;;;;6270367;28;20032;-73
2023/06/24 02:02:06;;;;;;;1.35;1.13;;;22.10;61.00;;;;;;6269573;28;20519;-73
2023/06/24 02:05:08;;;;;;;1.58;1.20;;;22.10;60.90;;;;;;6270102;28;20024;-73
2023/06/24 02:08:11;;;;;;;1.92;1.30;;;22.10;61.00;;;;;;6245157;28;20029;-73
2023/06/24 02:11:13;;;;;;;1.50;1.35;;;22.10;61.00;;;;;;6253206;28;20056;-72
2023/06/24 02:14:17;;;;;;;1.35;1.20;;;22.10;61.00;;;;;;6270531;28;20020;-73
2023/06/24 02:17:19;;;;;;;1.65;1.45;;;22.10;61.00;;;;;;6269224;28;20095;-72
2023/06/24 02:20:21;;;;;;;1.23;1.13;;;22.10;61.00;;;;;;6269631;28;20029;-73
2023/06/24 02:23:23;;;;;;;1.35;1.25;;;22.10;61.00;;;;;;6244232;28;20022;-73
2023/06/24 02:26:25;;;;;;;1.10;1.00;;;22.10;61.00;;;;;;6252902;28;20078;-73
2023/06/24 02:29:28;;;;;;;1.50;1.38;;;22.10;61.00;;;;;;6263984;28;20517;-73
2023/06/24 02:32:28;;;;;;;1.20;1.10;;;22.10;61.00;;;;;;6269557;28;20079;-73
2023/06/24 02:35:29;;;;;;;1.35;1.25;;;22.10;61.00;;;;;;6269256;28;20029;-73
2023/06/24 02:38:30;;;;;;;1.15;1.05;;;22.10;61.00;;;;;;6269387;28;20017;-73
2023/06/24 02:41:30;;;;;;;1.60;1.50;;;22.10;61.00;;;;;;6269512;28;20017;-73
2023/06/24 02:44:32;;;;;;;1.30;1.20;;;22.10;61.00;;;;;;6269004;28;20100;-73
2023/06/24 02:47:34;;;;;;;1.40;1.30;;;22.10;61.00;;;;;;6268876;28;20075;-73
2023/06/24 02:50:36;;;;;;;1.08;1.00;;;22.10;60.90;;;;;;6266109;28;20028;-73
2023/06/24 02:53:38;;;;;;;1.25;1.10;;;22.10;61.00;;;;;;6268669;28;20123;-73
2023/06/24 02:56:41;;;;;;;1.73;1.30;;;22.10;61.30;;;;;;6268843;28;20020;-73
2023/06/24 02:59:42;;;;;;;1.35;1.17;;;22.10;61.00;;;;;;6268731;28;20056;-74
2023/06/24 03:02:44;;;;;;;1.55;1.27;;;22.10;61.00;;;;;;6268462;28;20382;-73
2023/06/24 03:05:45;;;;;;;1.38;1.23;;;22.10;61.00;;;;;;6268502;28;20364;-73
2023/06/24 03:08:46;;;;;;;1.60;1.50;;;22.10;61.10;;;;;;6268475;28;20024;-73
2023/06/24 03:11:46;;;;;;;1.95;1.48;;;22.10;61.00;;;;;;6268279;28;20422;-73
2023/06/24 03:14:47;;;;;;;1.58;1.20;;;22.10;61.00;;;;;;6268367;28;20040;-74
2023/06/24 03:17:48;;;;;;;1.52;1.20;;;22.10;60.90;;;;;;6268232;28;20101;-73
2023/06/24 03:20:48;;;;;;;1.73;1.45;;;22.10;61.00;;;;;;6268231;28;20025;-73
2023/06/24 03:23:49;;;;;;;1.90;1.60;;;22.10;61.00;;;;;;6264777;28;20020;-73
2023/06/24 03:26:55;;;;;;;1.27;1.17;;;22.10;61.00;;;;;;6250468;28;20111;-73
2023/06/24 03:29:56;;;;;;;1.83;1.50;;;22.10;61.10;;;;;;6267893;28;20052;-73
2023/06/24 03:32:57;;;;;;;2.55;1.20;;;22.10;61.10;;;;;;6267537;28;20275;-73
2023/06/24 03:35:57;;;;;;;1.60;1.30;;;22.10;61.00;;;;;;6267739;28;20027;-73
2023/06/24 03:38:58;;;;;;;1.75;1.10;;;22.10;61.10;;;;;;6267450;28;20029;-73
2023/06/24 03:41:58;;;;;;;1.42;1.20;;;22.10;61.00;;;;;;6267492;28;20028;-73
2023/06/24 03:44:59;;;;;;;1.70;1.40;;;22.10;61.00;;;;;;6267410;28;20025;-73
2023/06/24 03:48:00;;;;;;;1.33;1.23;;;22.10;61.00;;;;;;6267715;28;20033;-73
2023/06/24 03:51:00;;;;;;;1.63;1.27;;;22.10;61.00;;;;;;6267433;28;20021;-73
2023/06/24 03:54:01;;;;;;;1.77;1.30;;;22.10;61.00;;;;;;6267084;28;20487;-73
2023/06/24 03:57:01;;;;;;;1.77;1.48;;;22.10;61.10;;;;;;6266525;28;20393;-73
2023/06/24 04:00:40;;;;;;;1.83;1.33;;;22.10;61.00;;;;;;6267095;28;20120;-73
2023/06/24 04:03:41;;;;;;;1.35;1.23;;;22.10;61.10;;;;;;6267276;28;20036;-73
2023/06/24 04:06:41;;;;;;;1.50;1.40;;;22.10;61.10;;;;;;6264338;28;20476;-73
2023/06/24 04:09:42;;;;;;;1.50;1.15;;;22.10;61.00;;;;;;6267156;28;20114;-73
2023/06/24 04:12:42;;;;;;;1.77;1.30;;;22.10;61.10;;;;;;6262821;28;20116;-73
2023/06/24 04:15:43;;;;;;;1.60;1.33;;;22.10;61.10;;;;;;6267161;28;20513;-73
2023/06/24 04:18:44;;;;;;;1.70;1.20;;;22.10;61.00;;;;;;6263994;28;20017;-72
2023/06/24 04:21:44;;;;;;;1.92;1.30;;;22.10;61.10;;;;;;6267616;28;20066;-73
2023/06/24 04:24:45;;;;;;;1.35;1.25;;;22.10;61.00;;;;;;6266579;28;20047;-73
2023/06/24 04:27:45;;;;;;;1.20;1.10;;;22.10;61.00;;;;;;6267174;28;20028;-73
2023/06/24 04:30:46;;;;;;;1.33;1.20;;;22.10;61.10;;;;;;6260980;28;20083;-73
2023/06/24 04:33:47;;;;;;;2.45;1.65;;;22.10;61.10;;;;;;6262294;28;20505;-73
2023/06/24 04:36:47;;;;;;;1.60;1.38;;;22.10;61.10;;;;;;6264111;28;20025;-73
2023/06/24 04:39:48;;;;;;;1.23;1.13;;;22.10;61.10;;;;;;6267487;28;20025;-73
2023/06/24 04:42:49;;;;;;;1.33;1.20;;;22.10;61.10;;;;;;6267007;28;20116;-73
2023/06/24 04:45:50;;;;;;;1.20;1.10;;;22.10;61.10;;;;;;6249400;28;20029;-73
2023/06/24 04:48:50;;;;;;;1.88;1.27;;;22.10;61.10;;;;;;6266697;28;20472;-73
2023/06/24 04:51:51;;;;;;;1.42;1.30;;;22.10;61.10;;;;;;6267352;28;20033;-73
2023/06/24 04:54:51;;;;;;;1.50;1.15;;;22.10;61.10;;;;;;6266585;28;20033;-72
2023/06/24 04:57:52;;;;;;;1.20;1.10;;;22.10;61.00;;;;;;6267140;28;20036;-73
2023/06/24 05:00:53;;;;;;;1.40;1.13;;;22.10;61.00;;;;;;6265571;28;20024;-72
2023/06/24 05:03:54;;;;;;;1.52;1.20;;;22.10;61.10;;;;;;6245875;28;20079;-73
2023/06/24 05:06:54;;;;;;;1.38;1.27;;;22.10;61.10;;;;;;6267845;28;20108;-73
2023/06/24 05:09:55;;;;;;;1.20;1.10;;;22.10;61.10;;;;;;6271026;28;20104;-73
2023/06/24 05:12:56;;;;;;;1.27;1.13;;;22.10;62.00;;;;;;6271504;28;20112;-73
2023/06/24 05:15:56;;;;;;;1.27;1.17;;;22.10;61.10;;;;;;6271358;28;20052;-73
2023/06/24 05:18:57;;;;;;;1.70;1.30;;;22.10;61.10;;;;;;6270924;28;20024;-73
2023/06/24 05:21:58;;;;;;;3.80;1.40;;;22.10;61.10;;;;;;6271119;28;20052;-73
2023/06/24 05:24:59;;;;;;;1.20;1.05;;;22.10;61.10;;;;;;6271033;28;20021;-73
2023/06/24 05:27:59;;;;;;;1.27;1.15;;;22.10;61.10;;;;;;6271017;28;20382;-73
2023/06/24 05:31:00;;;;;;;1.50;1.25;;;22.10;61.10;;;;;;6270712;28;20049;-73
2023/06/24 05:34:00;;;;;;;1.30;1.20;;;22.10;61.10;;;;;;6270743;28;20074;-73
2023/06/24 05:37:01;;;;;;;1.42;1.33;;;22.10;61.10;;;;;;6271097;28;20017;-73
2023/06/24 05:40:04;;;;;;;1.48;1.30;;;22.10;61.10;;;;;;6270603;28;20067;-73
2023/06/24 05:43:05;;;;;;;1.38;1.25;;;22.10;61.10;;;;;;6252880;28;20075;-73
2023/06/24 05:46:06;;;;;;;1.48;1.38;;;22.10;61.10;;;;;;6270276;28;20029;-74
2023/06/24 05:49:06;;;;;;;1.45;1.35;;;22.10;61.10;;;;;;6270389;28;20499;-73
2023/06/24 05:52:07;;;;;;;1.42;1.20;;;22.10;61.20;;;;;;6270505;28;20029;-73
2023/06/24 05:55:08;;;;;;;1.17;1.08;;;22.10;61.10;;;;;;6265473;28;20029;-73
2023/06/24 05:58:08;;;;;;;1.50;1.30;;;22.10;61.20;;;;;;6270132;28;20041;-73
2023/06/24 06:01:10;;;;;;;1.40;1.15;;;22.10;61.20;;;;;;6266425;28;20086;-73
2023/06/24 06:04:10;;;;;;;1.70;1.35;;;22.10;61.20;;;;;;6270128;28;20036;-73
2023/06/24 06:07:11;;;;;;;1.30;1.17;;;22.00;61.10;;;;;;6267651;28;20032;-73
2023/06/24 06:10:15;;;;;;;1.35;1.10;;;22.10;61.20;;;;;;6266524;28;20033;-73
2023/06/24 06:13:16;;;;;;;4.30;1.05;;;22.00;61.00;;;;;;6270230;28;20418;-73
2023/06/24 06:16:16;;;;;;;1.20;1.10;;;22.10;61.10;;;;;;6269514;28;20094;-73
2023/06/24 06:19:17;;;;;;;1.20;1.10;;;22.10;61.10;;;;;;6268726;28;20329;-73
2023/06/24 06:22:18;;;;;;;1.27;1.10;;;22.10;61.10;;;;;;6269894;28;20028;-72
2023/06/24 06:25:18;;;;;;;1.42;1.05;;;22.10;61.10;;;;;;6269330;28;20028;-73
2023/06/24 06:28:19;;;;;;;1.20;1.08;;;22.10;61.10;;;;;;6269539;28;20391;-73
2023/06/24 06:31:21;;;;;;;1.42;1.20;;;22.10;61.20;;;;;;6268935;28;20128;-73
2023/06/24 06:34:21;;;;;;;1.30;1.20;;;22.10;61.20;;;;;;6269795;28;20324;-73
2023/06/24 06:37:22;;;;;;;1.08;0.98;;;22.10;61.10;;;;;;6265918;28;20033;-73
2023/06/24 06:40:23;;;;;;;1.02;0.95;;;22.10;61.10;;;;;;6269261;28;20476;-73
2023/06/24 06:43:23;;;;;;;1.38;1.15;;;22.10;61.10;;;;;;6266189;28;20032;-73
2023/06/24 06:46:24;;;;;;;1.30;1.20;;;22.10;62.00;;;;;;6269715;28;20064;-73
2023/06/24 06:49:25;;;;;;;1.33;1.23;;;22.10;61.10;;;;;;6264286;28;20033;-73
2023/06/24 06:52:27;;;;;;;1.40;1.30;;;22.10;61.10;;;;;;6268701;28;20109;-73
2023/06/24 06:55:27;;;;;;;1.10;1.00;;;22.10;61.10;;;;;;6265885;28;20032;-73
2023/06/24 06:58:28;;;;;;;1.30;1.20;;;22.10;61.10;;;;;;6268904;28;20036;-73
2023/06/24 07:01:28;;;;;;;1.52;1.20;;;22.10;61.10;;;;;;6263945;28;20025;-73
2023/06/24 07:04:30;;;;;;;1.42;1.13;;;22.10;61.10;;;;;;6268752;28;20035;-73
2023/06/24 07:07:32;;;;;;;1.83;1.35;;;22.10;61.20;;;;;;6264067;28;20109;-73
2023/06/24 07:10:33;;;;;;;1.40;1.30;;;22.10;61.20;;;;;;6268499;28;20070;-72
2023/06/24 07:13:33;;;;;;;1.27;1.00;;;22.10;61.10;;;;;;6269008;28;20078;-73
2023/06/24 07:16:34;;;;;;;1.42;1.20;;;22.10;61.10;;;;;;6268304;28;20029;-72
2023/06/24 07:19:34;;;;;;;1.50;1.33;;;22.10;61.10;;;;;;6268121;28;20104;-73
2023/06/24 07:22:35;;;;;;;1.23;1.13;;;22.10;61.10;;;;;;6268324;28;20552;-73
2023/06/24 07:25:36;;;;;;;1.30;1.20;;;22.10;61.10;;;;;;6268518;28;20048;-73
2023/06/24 07:28:36;;;;;;;1.33;1.02;;;22.10;61.10;;;;;;6268517;28;20028;-73
2023/06/24 07:31:37;;;;;;;1.50;1.20;;;22.10;61.10;;;;;;6266769;28;20148;-74
2023/06/24 07:34:38;;;;;;;1.10;1.00;;;22.00;61.00;;;;;;6268279;28;20025;-73
2023/06/24 07:37:38;;;;;;;1.60;1.30;;;22.10;61.10;;;;;;6268043;28;20033;-73
2023/06/24 07:40:39;;;;;;;1.13;1.02;;;22.10;61.10;;;;;;6268239;28;20056;-73
2023/06/24 07:43:40;;;;;;;1.40;1.10;;;22.00;61.00;;;;;;6268207;28;20017;-73
2023/06/24 07:46:40;;;;;;;1.33;1.20;;;22.10;61.10;;;;;;6267982;28;20027;-73
2023/06/24 07:49:41;;;;;;;1.52;1.35;;;22.10;61.10;;;;;;6267723;28;20029;-73
2023/06/24 07:52:41;;;;;;;0.80;0.80;;;22.10;61.10;;;;;;6267885;28;20570;-74
2023/06/24 07:55:42;;;;;;;1.30;0.90;;;22.10;61.10;;;;;;6264742;28;20033;-73
2023/06/24 07:58:43;;;;;;;1.23;1.10;;;22.10;62.00;;;;;;6264810;28;20041;-73
2023/06/24 08:01:43;;;;;;;1.30;1.20;;;22.10;61.20;;;;;;6267585;28;20033;-73
2023/06/24 08:04:44;;;;;;;1.55;1.05;;;22.10;61.10;;;;;;6267942;28;20028;-73
2023/06/24 08:07:44;;;;;;;1.55;1.33;;;22.10;61.10;;;;;;6267875;28;20467;-73
2023/06/24 08:10:45;;;;;;;1.38;0.95;;;22.10;61.10;;;;;;6267621;28;20021;-73
2023/06/24 08:13:46;;;;;;;1.17;0.90;;;22.00;61.10;;;;;;6267345;28;20056;-73
2023/06/24 08:16:46;;;;;;;1.20;1.10;;;22.10;61.10;;;;;;6267664;28;20116;-73
2023/06/24 08:19:47;;;;;;;1.17;1.00;;;22.10;61.10;;;;;;6249245;28;20032;-73
2023/06/24 08:22:47;;;;;;;1.10;1.00;;;22.10;61.10;;;;;;6265393;28;20520;-73
2023/06/24 08:25:48;;;;;;;1.33;1.10;;;22.00;61.00;;;;;;6265062;28;20017;-73
2023/06/24 08:28:49;;;;;;;1.38;1.00;;;22.10;61.20;;;;;;6266084;28;20414;-73
2023/06/24 08:31:49;;;;;;;1.40;1.20;;;22.00;61.10;;;;;;6262329;28;20045;-72
2023/06/24 08:34:50;;;;;;;1.13;1.02;;;22.10;61.20;;;;;;6265427;28;20542;-73
2023/06/24 08:37:51;;;;;;;1.00;0.90;;;22.10;61.10;;;;;;6255845;28;20053;-73
2023/06/24 08:40:53;;;;;;;1.10;1.00;;;22.10;61.20;;;;;;6266131;28;20029;-72
2023/06/24 08:43:54;;;;;;;1.00;0.93;;;22.00;61.10;;;;;;6193149;28;20064;-73
2023/06/24 08:46:55;;;;;;;1.35;1.10;;;22.10;61.20;;;;;;6193393;28;20038;-73
2023/06/24 08:50:04;;;;;;;1.20;1.10;;;22.00;61.00;;;;;;6192806;28;20559;-73
2023/06/24 08:53:10;;;;;;;1.23;0.93;;;22.00;61.10;;;;;;6189088;28;20460;-73
2023/06/24 08:56:11;;;;;;;1.70;1.30;;;22.10;61.20;;;;;;6192628;28;20521;-73
2023/06/24 08:59:12;;;;;;;0.93;0.73;;;22.10;61.10;;;;;;6193366;28;20034;-73
2023/06/24 09:02:13;;;;;;;1.08;0.93;;;22.10;61.20;;;;;;6181778;28;20061;-73
2023/06/24 09:05:14;;;;;;;1.27;1.00;;;22.10;61.20;;;;;;6174350;28;20046;-72
2023/06/24 09:08:18;;;;;;;1.27;1.10;;;22.00;61.10;;;;;;6183231;28;20138;-73
2023/06/24 09:11:26;;;;;;;1.55;1.20;;;22.10;61.00;;;;;;6192372;28;20077;-73
2023/06/24 09:14:29;;;;;;;1.10;1.00;;;22.10;60.80;;;;;;6212869;28;20045;-73
2023/06/24 09:17:30;;;;;;;1.98;1.20;;;22.10;60.70;;;;;;6265184;28;20107;-72
2023/06/24 09:20:32;;;;;;;1.23;1.13;;;22.20;60.80;;;;;;6269297;28;20036;-72
2023/06/24 09:23:37;;;;;;;1.75;1.20;;;22.20;60.70;;;;;;6269273;28;20435;-73
2023/06/24 09:26:37;;;;;;;;;;;22.20;60.70;;;;;;6252179;28;20033;-73
2023/06/24 09:29:38;;;;;;;0.93;0.90;;;22.20;60.60;;;;;;6269151;28;19943;-73
2023/06/24 09:32:39;;;;;;;1.08;0.90;;;22.20;60.60;;;;;;6267187;28;20087;-72
2023/06/24 09:35:39;;;;;;;1.00;0.90;;;22.20;60.60;;;;;;6247100;28;20025;-72
2023/06/24 09:38:41;;;;;;;1.10;0.90;;;22.20;60.60;;;;;;6269075;28;20020;-74
2023/06/24 09:41:42;;;;;;;0.90;0.90;;;22.30;60.70;;;;;;6268717;28;20061;-71
2023/06/24 09:44:43;;;;;;;1.13;0.95;;;22.40;60.40;;;;;;6269382;28;20058;-73
2023/06/24 09:47:43;;;;;;;1.20;1.10;;;22.50;60.20;;;;;;6268645;28;20021;-72
2023/06/24 09:50:45;;;;;;;1.20;1.10;;;22.50;60.40;;;;;;6268344;28;20482;-72
2023/06/24 09:53:46;;;;;;;1.17;1.02;;;22.40;60.50;;;;;;6268556;28;20033;-73
2023/06/24 09:56:49;;;;;;;1.48;1.20;;;22.40;60.70;;;;;;6268699;28;20033;-72
2023/06/24 09:59:51;;;;;;;1.10;1.00;;;22.30;60.70;;;;;;6268649;28;20430;-72
2023/06/24 10:02:54;;;;;;;1.08;0.95;;;22.30;60.90;;;;;;6268505;28;20017;-72
2023/06/24 10:05:55;;;;;;;1.15;1.00;;;22.30;60.80;;;;;;6268660;28;20021;-72
2023/06/24 10:08:56;;;;;;;1.35;1.17;;;22.30;60.80;;;;;;6268482;28;20495;-72
2023/06/24 10:11:58;;;;;;;1.10;1.00;;;22.30;60.70;;;;;;6268505;28;20090;-72
2023/06/24 10:15:00;;;;;;;1.48;1.02;;;22.30;60.80;;;;;;6260377;28;20464;-72
2023/06/24 10:18:23;;;;;;;1.42;0.90;;;22.30;60.70;;;;;;6268223;28;20032;-73
2023/06/24 10:21:54;;;;;;;1.10;0.88;;;22.30;60.70;;;;;;6265894;28;20029;-73
2023/06/24 10:24:56;;;;;;;1.08;0.98;;;22.30;60.60;;;;;;6262255;28;20086;-73
2023/06/24 10:27:57;;;;;;;1.40;1.00;;;22.30;60.70;;;;;;6268215;28;20025;-71
2023/06/24 10:30:58;;;;;;;1.25;1.08;;;22.30;61.00;;;;;;6252057;28;20577;-72
2023/06/24 10:33:59;;;;;;;1.38;1.20;;;22.30;60.60;;;;;;6267648;28;20506;-72
2023/06/24 10:37:07;;;;;;;1.30;1.15;;;22.40;60.60;;;;;;6266702;28;20027;-71
2023/06/24 10:40:09;;;;;;;2.00;0.90;;;22.40;60.50;;;;;;6267570;28;20326;-72
2023/06/24 10:43:27;;;;;;;1.20;1.10;;;22.40;60.50;;;;;;6267706;28;20029;-72
2023/06/24 10:46:32;;;;;;;1.10;1.00;;;22.40;60.60;;;;;;6267259;28;20028;-72
2023/06/24 10:49:33;;;;;;;1.13;1.00;;;22.40;60.50;;;;;;6266932;28;20029;-72
2023/06/24 10:52:48;;;;;;;1.20;1.10;;;22.40;60.60;;;;;;6249118;28;20104;-72
2023/06/24 10:55:48;;;;;;;0.90;0.90;;;22.40;60.50;;;;;;6267035;28;20021;-72
2023/06/24 10:58:56;;;;;;;1.10;1.00;;;22.40;60.60;;;;;;6266228;28;20428;-72
2023/06/24 11:01:56;;;;;;;1.15;1.00;;;22.40;60.60;;;;;;6242518;28;20034;-72
2023/06/24 11:05:02;;;;;;;1.30;1.20;;;22.40;60.60;;;;;;6267063;28;20061;-72
2023/06/24 11:08:02;;;;;;;2.33;0.90;;;22.40;60.60;;;;;;6263045;28;20259;-72
2023/06/24 11:11:06;;;;;;;1.13;1.00;;;22.40;61.60;;;;;;6266850;28;20083;-72
2023/06/24 11:14:06;;;;;;;1.10;1.00;;;22.30;60.60;;;;;;6259377;28;20182;-72
2023/06/24 11:17:07;;;;;;;1.15;0.93;;;22.40;60.80;;;;;;6266463;28;20480;-72
2023/06/24 11:20:13;;;;;;;1.02;0.90;;;22.40;60.80;;;;;;6266218;28;20049;-72
2023/06/24 11:23:14;;;;;;;1.38;1.08;;;22.40;60.70;;;;;;6265595;28;20111;-72
2023/06/24 11:26:15;;;;;;;1.08;0.80;;;22.30;60.60;;;;;;6247564;28;20025;-72
2023/06/24 11:29:15;;;;;;;1.15;0.98;;;22.30;60.60;;;;;;6262480;28;20028;-72
2023/06/24 11:32:16;;;;;;;0.80;0.80;;;22.40;60.70;;;;;;6262248;28;20555;-72
2023/06/24 11:35:17;;;;;;;1.38;0.93;;;22.30;60.60;;;;;;6257732;28;20040;-72
2023/06/24 11:38:19;;;;;;;0.85;0.85;;;22.30;60.60;;;;;;6265905;28;20045;-72
2023/06/24 11:41:21;;;;;;;0.90;0.90;;;22.30;60.50;;;;;;6266312;28;20482;-72
2023/06/24 11:44:24;;;;;;;0.90;0.82;;;22.30;60.50;;;;;;6260359;28;20120;-72
2023/06/24 11:47:25;;;;;;;1.20;1.10;;;22.30;60.50;;;;;;6265733;28;20021;-72
2023/06/24 11:50:27;;;;;;;0.70;0.70;;;22.30;61.40;;;;;;6265227;28;20460;-72
2023/06/24 11:53:42;;;;;;;0.80;0.80;;;22.30;60.60;;;;;;6265322;28;20044;-71
2023/06/24 11:56:44;;;;;;;1.05;0.85;;;22.30;60.60;;;;;;6266253;28;20112;-72
2023/06/24 11:59:45;;;;;;;2.03;1.00;;;22.40;60.60;;;;;;6265119;28;20037;-72
2023/06/24 12:02:46;;;;;;;1.00;0.90;;;22.40;60.80;;;;;;6265594;28;20017;-72
2023/06/24 12:05:47;;;;;;;0.82;0.82;;;22.40;61.60;;;;;;6264796;28;20025;-72
2023/06/24 12:08:48;;;;;;;1.23;1.00;;;22.30;61.50;;;;;;6258929;28;20484;-72
2023/06/24 12:11:49;;;;;;;1.10;1.00;;;22.30;60.70;;;;;;6265906;28;20017;-72
2023/06/24 12:14:49;;;;;;;1.60;0.88;;;22.30;60.70;;;;;;6257495;28;20522;-72
2023/06/24 12:17:50;;;;;;;1.85;0.98;;;22.30;60.70;;;;;;6251983;28;20529;-72
2023/06/24 12:20:50;;;;;;;1.10;1.00;;;22.30;60.90;;;;;;6261559;28;20025;-72
2023/06/24 12:23:51;;;;;;;1.02;0.93;;;22.30;61.50;;;;;;6269840;28;20021;-72
2023/06/24 12:26:51;;;;;;;1.30;1.05;;;22.40;60.60;;;;;;6271187;28;20452;-72
2023/06/24 12:29:52;;;;;;;1.42;1.10;;;22.40;61.20;;;;;;6269237;28;20080;-72
2023/06/24 12:32:53;;;;;;;1.23;0.98;;;22.40;60.50;;;;;;6267362;28;20091;-72
2023/06/24 12:35:53;;;;;;;1.10;1.00;;;22.40;60.50;;;;;;6270557;28;20610;-73
2023/06/24 12:38:54;;;;;;;2.80;1.02;;;22.40;60.50;;;;;;6267280;28;20033;-73
2023/06/24 12:41:55;;;;;;;0.80;0.80;;;22.40;60.60;;;;;;6269753;28;20040;-73
2023/06/24 12:44:55;;;;;;;1.20;1.10;;;22.40;60.50;;;;;;6270425;28;20031;-73
2023/06/24 12:47:56;;;;;;;0.73;0.73;;;22.40;60.50;;;;;;6269612;28;20024;-73
2023/06/24 12:50:57;;;;;;;1.40;1.00;;;22.40;60.50;;;;;;6266841;28;20155;-73
2023/06/24 12:53:57;;;;;;;1.08;0.98;;;22.40;61.40;;;;;;6186445;28;20049;-73
2023/06/24 12:56:58;;;;;;;1.02;0.80;;;22.40;60.50;;;;;;6170781;28;20045;-72
2023/06/24 12:59:58;;;;;;;1.17;0.95;;;22.40;60.40;;;;;;6168247;28;20035;-73
2023/06/24 13:02:59;;;;;;;1.17;1.08;;;22.40;60.50;;;;;;6168323;28;20629;-72
2023/06/24 13:05:59;;;;;;;1.33;1.10;;;22.40;60.50;;;;;;6158024;28;20023;-72
2023/06/24 13:09:00;;;;;;;1.33;1.13;;;22.40;60.50;;;;;;6168400;28;20573;-72
2023/06/24 13:12:01;;;;;;;1.83;1.05;;;22.40;60.40;;;;;;6168611;28;20030;-72
2023/06/24 13:15:04;;;;;;;0.98;0.85;;;22.50;60.40;;;;;;6150108;28;20078;-72
2023/06/24 13:18:04;;;;;;;0.88;0.77;;;22.50;60.40;;;;;;6168827;28;20079;-72
2023/06/24 13:21:06;;;;;;;1.13;1.02;;;22.50;60.20;;;;;;6169228;28;20139;-72
2023/06/24 13:24:07;;;;;;;1.27;0.90;;;22.50;60.30;;;;;;6191863;28;20038;-73
2023/06/24 13:27:08;;;;;;;3.75;0.98;;;22.50;60.30;;;;;;6264044;28;20029;-72
2023/06/24 13:30:09;;;;;;;1.10;1.00;;;22.40;61.10;;;;;;6231342;28;20057;-72
2023/06/24 13:33:10;;;;;;;0.80;0.80;;;22.50;60.40;;;;;;6248124;28;20326;-72
2023/06/24 13:36:35;;;;;;;0.80;0.80;;;22.50;60.40;;;;;;6269517;28;20095;-72
2023/06/24 13:39:35;;;;;;;4.25;1.05;;;22.60;60.30;;;;;;6240535;28;20444;-72
2023/06/24 13:42:36;;;;;;;2.03;1.13;;;22.60;60.30;;;;;;6268932;28;20025;-72
2023/06/24 13:45:37;;;;;;;1.83;1.10;;;22.50;60.30;;;;;;6268566;28;20490;-73
2023/06/24 13:48:37;;;;;;;1.15;1.05;;;22.50;60.80;;;;;;6269403;28;20242;-72
2023/06/24 13:51:39;;;;;;;2.03;1.27;;;22.50;60.50;;;;;;6265559;28;20059;-73
2023/06/24 13:54:40;;;;;;;1.05;0.93;;;22.40;60.40;;;;;;6268513;28;20029;-72
2023/06/24 13:57:41;;;;;;;1.20;0.90;;;22.50;60.60;;;;;;6265303;28;20411;-73
2023/06/24 14:00:41;;;;;;;3.75;1.20;;;22.50;60.60;;;;;;6250179;28;20078;-72
2023/06/24 14:03:43;;;;;;;2.22;1.52;;;22.40;60.50;;;;;;6259982;28;20029;-73
2023/06/24 14:06:45;;;;;;;1.20;1.05;;;22.40;60.50;;;;;;6262857;28;20037;-72
2023/06/24 14:09:46;;;;;;;1.35;0.90;;;22.40;60.40;;;;;;6248589;28;20119;-72
2023/06/24 14:12:46;;;;;;;1.00;0.95;;;22.40;60.50;;;;;;6263556;28;20488;-73
2023/06/24 14:15:47;;;;;;;0.95;0.90;;;22.40;60.50;;;;;;6246727;28;20472;-72
2023/06/24 14:18:48;;;;;;;1.25;1.08;;;22.40;60.50;;;;;;6268256;28;20025;-72
2023/06/24 14:21:48;;;;;;;1.75;1.02;;;22.40;60.60;;;;;;6268023;28;20036;-72
2023/06/24 14:24:49;;;;;;;1.70;0.80;;;22.50;60.60;;;;;;6264911;28;20028;-72
2023/06/24 14:27:50;;;;;;;1.48;1.05;;;22.50;60.60;;;;;;6268066;28;20441;-73
2023/06/24 14:30:51;;;;;;;2.13;0.80;;;22.40;60.60;;;;;;6243741;28;20361;-72
2023/06/24 14:33:52;;;;;;;1.42;0.85;;;22.40;60.60;;;;;;6267448;28;20044;-72
2023/06/24 14:36:52;;;;;;;1.30;1.10;;;22.40;60.70;;;;;;6267655;28;20387;-72
2023/06/24 14:39:54;;;;;;;3.10;0.88;;;22.40;60.70;;;;;;6267291;28;20088;-72
2023/06/24 14:42:54;;;;;;;2.55;0.90;;;22.40;61.60;;;;;;6267348;28;20025;-72
2023/06/24 14:45:57;;;;;;;1.17;1.02;;;22.40;60.80;;;;;;6267800;28;20055;-74
2023/06/24 14:48:58;;;;;;;1.67;0.80;;;22.40;60.80;;;;;;6267122;28;20120;-72
2023/06/24 14:51:58;;;;;;;0.82;0.80;;;22.40;60.80;;;;;;6267551;28;20017;-73
2023/06/24 14:54:59;;;;;;;1.17;1.08;;;22.30;60.70;;;;;;6267335;28;20052;-72
2023/06/24 14:57:59;;;;;;;1.08;0.90;;;22.40;60.80;;;;;;6267834;28;20044;-73
2023/06/24 15:01:00;;;;;;;1.13;0.77;;;22.30;60.80;;;;;;6263804;28;20067;-72
2023/06/24 15:04:01;;;;;;;1.00;0.90;;;22.30;60.70;;;;;;6267193;28;20497;-72
2023/06/24 15:07:01;;;;;;;1.23;1.02;;;22.30;60.80;;;;;;6267063;28;20025;-72
2023/06/24 15:10:02;;;;;;;0.82;0.80;;;22.30;60.80;;;;;;6263663;28;20731;-72
2023/06/24 15:13:03;;;;;;;1.88;0.95;;;22.30;60.80;;;;;;6265523;28;20041;-73
2023/06/24 15:16:04;;;;;;;0.80;0.77;;;22.30;60.80;;;;;;6267343;28;20021;-73
2023/06/24 15:19:04;;;;;;;1.23;0.93;;;22.30;60.90;;;;;;6263210;28;20021;-72
2023/06/24 15:22:05;;;;;;;0.98;0.90;;;22.30;60.90;;;;;;6266851;28;20590;-72
2023/06/24 15:25:06;;;;;;;0.77;0.68;;;22.30;60.90;;;;;;6266266;28;20302;-73
2023/06/24 15:28:07;;;;;;;0.90;0.80;;;22.20;60.80;;;;;;6263988;28;20029;-74
2023/06/24 15:31:07;;;;;;;1.77;1.00;;;22.30;60.90;;;;;;6242773;28;20110;-72
2023/06/24 15:34:11;;;;;;;1.15;0.90;;;22.30;60.90;;;;;;6254245;28;20120;-72
2023/06/24 15:37:14;;;;;;;1.73;1.02;;;22.30;61.00;;;;;;6267143;28;20463;-72
2023/06/24 15:40:14;;;;;;;2.25;1.10;;;22.30;60.90;;;;;;6265219;28;20033;-73
2023/06/24 15:43:15;;;;;;;1.23;0.90;;;22.20;60.90;;;;;;6267165;28;20055;-72
2023/06/24 15:46:16;;;;;;;1.52;0.95;;;22.30;61.00;;;;;;6264605;28;20025;-73
2023/06/24 15:49:16;;;;;;;2.35;1.02;;;22.30;61.00;;;;;;6250754;28;20056;-73